Time;durP1;ratioP1;P1;durP2;ratioP2;P2;SDS_P1;SDS_P2;PMS_P1;PMS_P2;Temp;Humidity;BMP_temperature;BMP_pressure;BME280_temperature;BME280_humidity;BME280_pressure;Samples;Min_cycle;Max_cycle;Signal;HPM_P1;HPM_P2
2021/06/29 00:00:20;;;;;;;2.10;2.00;;;25.80;58.50;;;;;;5096301;28;20063;-75
2021/06/29 00:02:45;;;;;;;5.28;2.10;;;25.80;58.50;;;;;;5095787;28;20063;-75
2021/06/29 00:05:12;;;;;;;1.90;1.65;;;25.80;59.10;;;;;;5095617;28;20028;-75
2021/06/29 00:07:37;;;;;;;2.53;1.58;;;25.80;58.20;;;;;;5096017;28;20016;-75
2021/06/29 00:10:07;;;;;;;1.50;1.42;;;25.80;58.50;;;;;;5095930;28;20103;-75
2021/06/29 00:12:32;;;;;;;1.60;1.52;;;25.70;58.40;;;;;;5095517;28;20080;-75
2021/06/29 00:14:58;;;;;;;2.17;1.85;;;25.70;58.30;;;;;;5095823;28;20020;-76
2021/06/29 00:17:24;;;;;;;2.53;1.48;;;25.80;58.40;;;;;;5095716;28;20024;-75
2021/06/29 00:19:50;;;;;;;2.35;1.60;;;25.80;58.30;;;;;;5094975;28;20023;-75
2021/06/29 00:22:15;;;;;;;1.88;1.77;;;25.90;58.10;;;;;;5094807;28;20051;-75
2021/06/29 00:24:41;;;;;;;3.35;2.45;;;25.90;57.70;;;;;;5095531;28;20471;-75
2021/06/29 00:27:07;;;;;;;1.65;1.55;;;25.90;57.90;;;;;;5095495;28;20032;-75
2021/06/29 00:29:33;;;;;;;1.73;1.65;;;25.80;58.10;;;;;;5094994;28;20032;-75
2021/06/29 00:31:59;;;;;;;1.85;1.63;;;25.90;57.80;;;;;;5094893;28;20032;-75
2021/06/29 00:34:24;;;;;;;2.00;1.48;;;25.90;56.90;;;;;;5095222;28;20018;-75
2021/06/29 00:36:50;;;;;;;1.60;1.55;;;26.00;57.50;;;;;;5095577;28;20401;-75
2021/06/29 00:39:35;;;;;;;4.45;1.80;;;25.90;57.50;;;;;;5079862;28;20432;-75
2021/06/29 00:42:00;;;;;;;2.20;1.90;;;25.90;57.00;;;;;;5095277;28;20025;-75
2021/06/29 00:44:26;;;;;;;1.90;1.80;;;25.90;57.10;;;;;;5077068;28;20031;-75
2021/06/29 00:46:54;;;;;;;1.48;1.48;;;25.80;57.50;;;;;;5077148;28;20504;-75
2021/06/29 00:49:20;;;;;;;1.65;1.55;;;25.80;57.20;;;;;;5095400;28;20594;-75
2021/06/29 00:51:45;;;;;;;2.00;1.60;;;25.80;57.30;;;;;;5095108;28;20069;-75
2021/06/29 00:54:13;;;;;;;2.25;1.70;;;25.80;57.70;;;;;;5094914;28;20028;-75
2021/06/29 00:56:40;;;;;;;1.45;1.45;;;25.70;57.50;;;;;;5094942;28;20020;-75
2021/06/29 00:59:06;;;;;;;1.73;1.48;;;25.70;57.40;;;;;;5094889;28;20027;-75
2021/06/29 01:01:32;;;;;;;1.33;1.33;;;25.70;57.10;;;;;;5095116;28;20031;-75
2021/06/29 01:03:57;;;;;;;2.78;1.40;;;25.70;56.90;;;;;;5094678;28;20462;-75
2021/06/29 01:06:23;;;;;;;5.38;1.30;;;25.80;56.70;;;;;;5095086;28;20027;-75
2021/06/29 01:08:49;;;;;;;1.67;1.58;;;25.70;56.90;;;;;;5094773;28;20050;-75
2021/06/29 01:11:15;;;;;;;1.85;1.70;;;25.70;57.00;;;;;;5076493;28;20417;-75
2021/06/29 01:13:43;;;;;;;1.52;1.42;;;25.70;57.20;;;;;;5094576;28;20070;-75
2021/06/29 01:16:10;;;;;;;1.67;1.58;;;25.70;57.40;;;;;;5094690;28;20106;-75
2021/06/29 01:18:38;;;;;;;1.65;1.55;;;25.70;57.20;;;;;;5076340;28;20101;-75
2021/06/29 01:21:05;;;;;;;2.95;1.50;;;25.70;56.90;;;;;;5094578;28;20042;-75
2021/06/29 01:23:32;;;;;;;1.70;1.60;;;25.60;57.00;;;;;;5076049;28;20431;-75
2021/06/29 01:31:20;;;;;;;1.65;1.55;;;25.50;57.20;;;;;;5093508;28;20079;-75
2021/06/29 01:33:46;;;;;;;1.42;1.30;;;25.50;57.50;;;;;;5094106;28;20035;-75
2021/06/29 01:36:16;;;;;;;1.40;1.40;;;25.50;57.70;;;;;;5092715;28;20024;-75
2021/06/29 01:38:42;;;;;;;1.70;1.60;;;25.50;57.60;;;;;;5056773;28;20035;-75
2021/06/29 01:41:11;;;;;;;1.67;1.50;;;25.50;57.70;;;;;;5077769;28;20489;-75
2021/06/29 01:43:48;;;;;;;4.43;1.40;;;25.50;57.80;;;;;;5075403;28;20035;-75
2021/06/29 01:46:15;;;;;;;1.20;1.10;;;25.40;57.60;;;;;;5094088;28;20030;-75
2021/06/29 01:48:47;;;;;;;1.88;1.50;;;25.30;57.60;;;;;;5093757;28;20060;-75
2021/06/29 01:51:14;;;;;;;1.50;1.40;;;25.30;58.10;;;;;;5075278;28;20027;-75
2021/06/29 01:53:39;;;;;;;1.67;1.58;;;25.30;58.10;;;;;;5093845;28;20021;-75
2021/06/29 01:56:07;;;;;;;2.97;1.38;;;25.30;57.90;;;;;;5093673;28;20028;-75
2021/06/29 01:58:34;;;;;;;1.10;1.10;;;25.20;57.90;;;;;;5094037;28;20074;-76
2021/06/29 02:01:00;;;;;;;3.63;1.60;;;25.20;58.20;;;;;;5093641;28;20474;-75
2021/06/29 02:03:26;;;;;;;1.30;1.30;;;25.20;58.60;;;;;;5093629;28;20070;-75
2021/06/29 02:05:52;;;;;;;4.97;1.73;;;25.10;58.60;;;;;;5093432;28;20365;-75
2021/06/29 02:08:18;;;;;;;2.42;1.55;;;25.10;58.70;;;;;;5093809;28;20103;-75
2021/06/29 02:10:44;;;;;;;1.50;1.40;;;25.10;58.70;;;;;;5093382;28;20031;-75
2021/06/29 02:13:10;;;;;;;1.70;1.45;;;25.00;59.10;;;;;;5093548;28;20393;-75
2021/06/29 02:15:36;;;;;;;1.45;1.33;;;25.00;59.00;;;;;;5074878;28;20394;-75
2021/06/29 02:18:04;;;;;;;3.25;1.52;;;24.90;59.00;;;;;;5093515;28;20074;-75
2021/06/29 02:20:29;;;;;;;1.58;1.30;;;24.90;59.20;;;;;;5093468;28;20812;-75
2021/06/29 02:22:56;;;;;;;2.03;1.23;;;24.90;59.40;;;;;;5075261;28;20024;-75
2021/06/29 02:25:22;;;;;;;1.10;1.10;;;24.80;59.20;;;;;;5093255;28;20058;-75
2021/06/29 02:27:47;;;;;;;1.52;1.30;;;24.80;59.30;;;;;;5093331;28;20607;-75
2021/06/29 02:30:14;;;;;;;5.32;1.67;;;24.90;59.30;;;;;;5093242;28;20055;-75
2021/06/29 02:32:41;;;;;;;2.00;1.40;;;25.00;59.30;;;;;;5092835;28;20028;-75
2021/06/29 02:35:07;;;;;;;1.55;1.45;;;25.00;59.10;;;;;;5074497;28;20055;-75
2021/06/29 02:37:33;;;;;;;1.67;1.58;;;25.00;59.10;;;;;;5093092;28;20028;-75
2021/06/29 02:39:58;;;;;;;1.55;1.42;;;25.00;59.20;;;;;;5093235;28;20027;-75
2021/06/29 02:42:24;;;;;;;6.35;1.75;;;25.00;59.30;;;;;;5074631;28;20032;-75
2021/06/29 02:44:50;;;;;;;2.05;1.40;;;24.90;59.40;;;;;;5091848;28;20332;-75
2021/06/29 02:47:16;;;;;;;1.52;1.48;;;24.90;59.60;;;;;;5092991;28;20076;-75
2021/06/29 02:49:42;;;;;;;1.15;1.05;;;24.80;59.50;;;;;;5093064;28;20032;-75
2021/06/29 02:52:09;;;;;;;1.52;1.42;;;24.90;59.80;;;;;;5092982;28;20028;-75
2021/06/29 02:54:35;;;;;;;2.05;1.25;;;24.80;60.30;;;;;;5092575;28;20111;-75
2021/06/29 02:57:01;;;;;;;1.40;1.40;;;24.80;60.70;;;;;;5092750;28;20042;-75
2021/06/29 02:59:27;;;;;;;1.10;1.10;;;24.80;60.20;;;;;;5093048;28;20458;-75
2021/06/29 03:01:53;;;;;;;1.55;1.45;;;24.80;60.20;;;;;;5074261;28;20041;-75
2021/06/29 03:04:19;;;;;;;2.40;1.48;;;24.70;60.90;;;;;;5092678;28;20020;-75
2021/06/29 03:06:45;;;;;;;1.70;1.60;;;24.70;61.00;;;;;;5092735;28;20109;-75
2021/06/29 03:09:10;;;;;;;1.40;1.30;;;24.60;61.10;;;;;;5092962;28;20077;-75
2021/06/29 03:11:38;;;;;;;1.40;1.30;;;24.60;61.40;;;;;;5074666;28;20031;-75
2021/06/29 03:14:04;;;;;;;1.52;1.42;;;24.60;61.10;;;;;;5092716;28;20028;-75
2021/06/29 03:16:31;;;;;;;3.55;1.48;;;24.60;61.00;;;;;;5092691;28;20125;-75
2021/06/29 03:18:57;;;;;;;1.55;1.38;;;24.60;61.10;;;;;;5092777;28;20028;-75
2021/06/29 03:21:23;;;;;;;5.53;1.80;;;24.60;61.10;;;;;;5092845;28;20024;-75
2021/06/29 03:23:50;;;;;;;1.60;1.23;;;24.60;61.10;;;;;;5074565;28;20418;-75
2021/06/29 03:26:16;;;;;;;1.42;1.42;;;24.60;61.30;;;;;;5074577;28;20034;-75
2021/06/29 03:28:41;;;;;;;2.97;1.77;;;24.60;61.20;;;;;;5074556;28;20107;-75
2021/06/29 03:31:07;;;;;;;1.33;1.20;;;24.60;61.00;;;;;;5092537;28;20110;-75
2021/06/29 03:33:33;;;;;;;6.63;1.48;;;24.60;61.20;;;;;;5092321;28;20024;-75
2021/06/29 03:35:59;;;;;;;5.68;1.60;;;24.50;61.70;;;;;;5092543;28;20025;-75
2021/06/29 03:38:25;;;;;;;4.60;1.55;;;24.50;61.70;;;;;;5091642;28;20027;-75
2021/06/29 03:40:51;;;;;;;1.50;1.40;;;24.50;61.60;;;;;;5071879;28;20035;-75
2021/06/29 03:43:16;;;;;;;1.77;1.60;;;24.40;61.90;;;;;;5092583;28;20023;-75
2021/06/29 03:45:42;;;;;;;1.52;1.50;;;24.40;62.10;;;;;;5092418;28;20077;-75
2021/06/29 03:48:08;;;;;;;1.65;1.55;;;24.40;62.10;;;;;;5073968;28;20028;-75
2021/06/29 03:50:34;;;;;;;1.67;1.58;;;24.40;61.80;;;;;;5092357;28;20410;-75
2021/06/29 03:53:00;;;;;;;1.65;1.55;;;24.30;61.80;;;;;;5073988;28;20119;-75
2021/06/29 03:55:25;;;;;;;1.70;1.60;;;24.30;61.90;;;;;;5075861;28;20035;-75
2021/06/29 03:57:51;;;;;;;2.67;1.80;;;24.30;61.90;;;;;;5096094;28;20347;-75
2021/06/29 04:00:17;;;;;;;1.80;1.70;;;24.30;62.10;;;;;;5095812;28;20024;-75
2021/06/29 04:02:43;;;;;;;1.60;1.50;;;24.30;62.40;;;;;;5095757;28;20031;-75
2021/06/29 04:05:09;;;;;;;1.52;1.40;;;24.20;62.70;;;;;;5095699;28;20030;-75
2021/06/29 04:07:35;;;;;;;3.92;1.45;;;24.20;62.90;;;;;;5094995;28;20198;-75
2021/06/29 04:10:05;;;;;;;3.58;1.40;;;24.20;63.10;;;;;;5095757;28;20111;-75
2021/06/29 04:12:31;;;;;;;1.92;1.80;;;24.10;62.90;;;;;;5095063;28;20036;-75
2021/06/29 04:14:57;;;;;;;4.78;1.65;;;24.10;63.10;;;;;;5095546;28;20111;-75
2021/06/29 04:17:22;;;;;;;1.58;1.48;;;24.10;63.30;;;;;;5076210;28;20036;-75
2021/06/29 04:19:48;;;;;;;1.75;1.65;;;24.20;63.40;;;;;;5095122;28;20027;-75
2021/06/29 04:22:14;;;;;;;3.05;1.98;;;24.20;63.20;;;;;;5094953;28;20058;-75
2021/06/29 04:24:40;;;;;;;3.17;1.63;;;24.10;63.10;;;;;;5095588;28;20175;-75
2021/06/29 04:27:06;;;;;;;1.70;1.60;;;24.10;63.50;;;;;;5095324;28;20385;-75
2021/06/29 04:29:32;;;;;;;1.80;1.70;;;24.20;63.20;;;;;;5077138;28;20028;-77
2021/06/29 04:31:57;;;;;;;2.42;1.88;;;24.20;62.80;;;;;;5077403;28;20377;-75
2021/06/29 04:34:23;;;;;;;1.83;1.65;;;24.30;63.30;;;;;;5095422;28;20086;-75
2021/06/29 04:36:49;;;;;;;2.33;1.63;;;24.30;63.30;;;;;;5077014;28;20077;-75
2021/06/29 04:39:15;;;;;;;4.53;1.52;;;24.30;62.30;;;;;;5095493;28;20031;-75
2021/06/29 04:41:40;;;;;;;2.10;1.35;;;24.40;61.60;;;;;;5095043;28;20107;-75
2021/06/29 04:44:06;;;;;;;1.52;1.42;;;24.50;62.50;;;;;;5095245;28;20024;-75
2021/06/29 04:46:33;;;;;;;2.65;1.42;;;24.60;62.50;;;;;;5076737;28;20032;-75
2021/06/29 04:48:58;;;;;;;1.48;1.38;;;24.50;63.30;;;;;;5095193;28;20062;-75
2021/06/29 04:51:24;;;;;;;1.33;1.23;;;24.60;62.30;;;;;;5076768;28;20101;-77
2021/06/29 04:53:50;;;;;;;2.80;1.58;;;24.60;61.00;;;;;;5094899;28;20028;-75
2021/06/29 04:56:19;;;;;;;11.15;1.98;;;24.60;60.30;;;;;;5094801;28;20039;-75
2021/06/29 04:58:52;;;;;;;2.00;1.50;;;24.60;61.00;;;;;;5078057;28;20039;-75
2021/06/29 05:01:18;;;;;;;1.05;1.02;;;24.60;61.70;;;;;;5094418;28;20016;-76
2021/06/29 05:03:44;;;;;;;1.98;1.40;;;24.70;61.30;;;;;;5076185;28;20099;-75
2021/06/29 05:06:10;;;;;;;3.40;1.40;;;24.70;61.10;;;;;;5093701;28;20154;-75
2021/06/29 05:08:35;;;;;;;4.38;2.67;;;24.60;61.20;;;;;;5095161;28;20018;-75
2021/06/29 05:11:01;;;;;;;1.73;1.63;;;24.70;61.60;;;;;;5076229;28;20024;-75
2021/06/29 05:13:27;;;;;;;4.50;1.25;;;24.70;61.00;;;;;;5094707;28;20016;-75
2021/06/29 05:15:53;;;;;;;1.98;1.50;;;24.70;61.20;;;;;;5094933;28;20543;-75
2021/06/29 05:18:19;;;;;;;3.42;1.52;;;24.80;61.60;;;;;;5094198;28;20039;-75
2021/06/29 05:20:44;;;;;;;1.50;1.40;;;24.80;61.40;;;;;;5094278;28;20020;-75
2021/06/29 05:23:10;;;;;;;1.33;1.23;;;24.80;61.40;;;;;;5075443;28;20077;-75
2021/06/29 05:25:36;;;;;;;2.53;1.50;;;24.80;61.60;;;;;;5075835;28;20386;-75
2021/06/29 05:28:02;;;;;;;2.72;1.48;;;24.80;61.70;;;;;;5093712;28;20024;-75
2021/06/29 05:30:28;;;;;;;6.53;1.50;;;24.80;61.40;;;;;;5093694;28;20059;-75
2021/06/29 05:32:55;;;;;;;2.50;1.83;;;24.90;61.00;;;;;;5093398;28;20028;-74
2021/06/29 05:35:21;;;;;;;2.58;1.55;;;24.90;60.90;;;;;;5093907;28;20031;-75
2021/06/29 05:37:46;;;;;;;4.22;1.50;;;24.90;61.00;;;;;;5094409;28;20016;-74
2021/06/29 05:40:13;;;;;;;2.53;1.70;;;25.00;61.30;;;;;;5093923;28;20062;-74
2021/06/29 05:42:39;;;;;;;5.28;1.80;;;25.00;61.30;;;;;;5074406;28;20103;-74
2021/06/29 05:45:05;;;;;;;3.92;1.75;;;25.10;61.10;;;;;;5094264;28;20158;-75
2021/06/29 05:47:35;;;;;;;1.77;1.48;;;25.20;61.10;;;;;;5075806;28;20024;-75
2021/06/29 05:50:01;;;;;;;5.10;1.92;;;25.20;61.10;;;;;;5093963;28;20028;-75
2021/06/29 05:52:27;;;;;;;2.92;1.60;;;25.20;60.90;;;;;;5093908;28;20032;-75
2021/06/29 05:54:52;;;;;;;3.05;1.60;;;25.30;61.00;;;;;;5093960;28;20110;-75
2021/06/29 05:57:18;;;;;;;2.33;1.70;;;25.30;61.50;;;;;;5093699;28;20055;-75
2021/06/29 05:59:44;;;;;;;9.18;1.60;;;25.40;62.00;;;;;;5093737;28;20016;-74
2021/06/29 06:02:10;;;;;;;1.40;1.30;;;25.40;61.60;;;;;;5075776;28;20025;-74
2021/06/29 06:04:37;;;;;;;2.25;1.40;;;25.50;61.50;;;;;;5075275;28;20028;-75
2021/06/29 06:07:04;;;;;;;4.00;1.35;;;25.50;61.90;;;;;;5093689;28;20028;-75
2021/06/29 06:09:30;;;;;;;3.72;1.50;;;25.60;61.20;;;;;;5093508;28;20024;-76
2021/06/29 06:11:56;;;;;;;1.10;1.10;;;25.70;60.00;;;;;;5093562;28;20099;-75
2021/06/29 06:14:22;;;;;;;3.08;1.50;;;25.70;59.60;;;;;;5093290;28;20418;-74
2021/06/29 06:16:48;;;;;;;2.17;1.38;;;25.80;60.20;;;;;;5093510;28;20024;-75
2021/06/29 06:19:14;;;;;;;3.42;1.70;;;25.80;60.10;;;;;;5093484;28;20424;-75
2021/06/29 06:21:39;;;;;;;1.92;1.70;;;25.90;61.00;;;;;;5093355;28;20024;-77
2021/06/29 06:24:06;;;;;;;4.97;1.92;;;26.00;61.60;;;;;;5092958;28;20031;-75
2021/06/29 06:26:32;;;;;;;4.85;1.63;;;26.10;62.70;;;;;;5093352;28;20020;-75
2021/06/29 06:28:58;;;;;;;4.68;1.50;;;26.20;59.60;;;;;;5093145;28;20500;-75
2021/06/29 06:31:24;;;;;;;1.30;1.20;;;26.20;58.00;;;;;;5060045;28;20059;-75
2021/06/29 06:33:49;;;;;;;1.67;1.58;;;26.30;56.80;;;;;;5067238;28;20024;-75
2021/06/29 06:36:15;;;;;;;4.63;1.40;;;26.40;58.90;;;;;;5071284;28;20028;-75
2021/06/29 06:38:41;;;;;;;1.85;1.48;;;26.50;57.60;;;;;;5071569;28;20414;-75
2021/06/29 06:41:07;;;;;;;1.92;1.50;;;26.50;54.80;;;;;;5072531;28;20355;-75
2021/06/29 06:43:33;;;;;;;1.80;1.30;;;26.50;55.00;;;;;;5071626;28;20027;-75
2021/06/29 06:45:58;;;;;;;3.33;1.58;;;26.50;56.10;;;;;;5072984;28;20478;-75
2021/06/29 06:48:24;;;;;;;1.63;1.42;;;26.50;57.70;;;;;;5071426;28;20119;-75
2021/06/29 06:50:50;;;;;;;2.15;1.67;;;26.60;56.40;;;;;;5072779;28;20029;-75
2021/06/29 06:53:16;;;;;;;3.40;1.33;;;26.60;53.70;;;;;;5072560;28;20581;-75
2021/06/29 06:55:41;;;;;;;1.92;1.55;;;26.70;54.50;;;;;;5072725;28;20063;-75
2021/06/29 06:58:07;;;;;;;1.70;1.60;;;26.70;54.50;;;;;;5070113;28;20108;-75
2021/06/29 07:00:34;;;;;;;3.80;1.92;;;26.80;55.10;;;;;;5058860;28;20430;-75
2021/06/29 07:02:59;;;;;;;8.07;1.40;;;26.90;56.30;;;;;;5061872;28;20158;-74
2021/06/29 07:05:31;;;;;;;1.67;1.48;;;26.90;56.50;;;;;;5060471;28;20138;-75
2021/06/29 07:07:56;;;;;;;2.97;1.98;;;26.90;55.10;;;;;;5061880;28;20084;-75
2021/06/29 07:10:22;;;;;;;3.58;1.67;;;27.00;54.50;;;;;;5068961;28;20052;-74
2021/06/29 07:12:48;;;;;;;2.60;1.70;;;26.90;54.70;;;;;;5066954;28;20036;-74
2021/06/29 07:15:14;;;;;;;2.00;1.90;;;27.00;55.70;;;;;;5067137;28;20024;-74
2021/06/29 07:17:40;;;;;;;1.38;1.38;;;27.00;55.80;;;;;;5062939;28;20115;-75
2021/06/29 07:20:07;;;;;;;3.95;1.77;;;27.00;55.40;;;;;;5057642;28;20029;-75
2021/06/29 07:22:34;;;;;;;4.13;1.80;;;27.00;55.40;;;;;;5067475;28;20039;-75
2021/06/29 07:25:00;;;;;;;6.28;1.80;;;27.10;56.00;;;;;;5067987;28;20009;-74
2021/06/29 07:27:26;;;;;;;1.67;1.58;;;27.10;56.80;;;;;;5060832;28;20495;-74
2021/06/29 07:29:52;;;;;;;2.45;1.50;;;27.10;57.40;;;;;;5063029;28;20070;-74
2021/06/29 07:32:17;;;;;;;3.33;1.75;;;27.20;57.10;;;;;;5088455;28;20077;-74
2021/06/29 07:34:43;;;;;;;2.83;1.88;;;27.20;55.90;;;;;;5087652;28;20489;-75
2021/06/29 07:37:09;;;;;;;2.35;1.70;;;27.10;57.50;;;;;;5082067;28;20021;-74
2021/06/29 07:39:35;;;;;;;1.80;1.70;;;27.10;59.10;;;;;;5083288;28;20051;-74
2021/06/29 07:42:00;;;;;;;2.45;1.80;;;27.00;57.50;;;;;;5086029;28;20024;-75
2021/06/29 07:44:26;;;;;;;10.95;2.20;;;27.00;58.00;;;;;;5092432;28;20849;-74
2021/06/29 07:46:52;;;;;;;13.02;2.47;;;27.10;57.00;;;;;;5094234;28;20040;-74
2021/06/29 07:49:18;;;;;;;2.30;2.17;;;27.10;58.20;;;;;;5085456;28;20067;-74
2021/06/29 07:51:44;;;;;;;12.85;2.40;;;27.10;57.80;;;;;;5070560;28;20059;-74
2021/06/29 07:54:09;;;;;;;2.63;1.88;;;27.20;57.50;;;;;;5090913;28;20056;-75
2021/06/29 07:56:37;;;;;;;7.75;2.60;;;27.20;56.80;;;;;;5093264;28;20046;-75
2021/06/29 07:59:03;;;;;;;3.40;2.03;;;27.20;57.30;;;;;;5075902;28;20624;-75
2021/06/29 08:01:29;;;;;;;5.68;1.80;;;27.30;57.10;;;;;;5088745;28;20474;-74
